createdAt,value
2022-08-31T00:01:15.833Z,102345.75
2022-08-31T00:03:54.003Z,102351.84
2022-08-31T00:06:20.995Z,102349.31
2022-08-31T00:08:47.520Z,102352.69
2022-08-31T00:11:14.426Z,102344.91
2022-08-31T00:13:41.852Z,102344.91
2022-08-31T00:16:10.625Z,102344.06
2022-08-31T00:18:37.135Z,102339.66
2022-08-31T00:21:04.403Z,102338.84
2022-08-31T00:23:31.004Z,102339.78
2022-08-31T00:25:57.682Z,102345.00
2022-08-31T00:28:24.063Z,102341.56
2022-08-31T00:30:50.700Z,102336.31
2022-08-31T00:33:17.382Z,102340.69
2022-08-31T00:35:44.575Z,102338.94
2022-08-31T00:38:12.352Z,102346.03
2022-08-31T00:40:45.055Z,102344.19
2022-08-31T00:43:30.524Z,102344.28
2022-08-31T00:45:56.965Z,102335.56
2022-08-31T00:48:23.365Z,102344.28
2022-08-31T00:50:49.723Z,102338.19
2022-08-31T00:53:16.255Z,102338.19
2022-08-31T00:55:42.792Z,102336.41
2022-08-31T00:58:12.990Z,102346.03
2022-08-31T01:00:42.681Z,102339.97
2022-08-31T01:03:09.580Z,102345.22
2022-08-31T01:05:37.542Z,102345.31
2022-08-31T01:08:05.980Z,102345.31
2022-08-31T01:10:37.216Z,102346.16
2022-08-31T01:13:04.552Z,102341.84
2022-08-31T01:15:31.548Z,102336.59
2022-08-31T01:18:02.505Z,102334.06
2022-08-31T01:20:43.208Z,102338.38
2022-08-31T01:23:22.154Z,102335.75
2022-08-31T01:25:50.436Z,102334.06
2022-08-31T01:28:17.202Z,102340.19
2022-08-31T01:30:56.580Z,102343.63
2022-08-31T01:33:22.957Z,102341.09
2022-08-31T01:35:49.337Z,102341.09
2022-08-31T01:38:15.726Z,102340.28
2022-08-31T01:40:51.566Z,102344.66
2022-08-31T01:43:18.118Z,102339.41
2022-08-31T01:45:44.559Z,102343.72
2022-08-31T01:48:11.390Z,102343.00
2022-08-31T01:50:37.884Z,102337.66
2022-08-31T01:53:04.263Z,102345.63
2022-08-31T01:55:30.709Z,102350.88
2022-08-31T01:57:58.383Z,102350.88
2022-08-31T02:00:24.876Z,102343.00
2022-08-31T02:02:51.282Z,102348.34
2022-08-31T02:05:17.884Z,102341.41
2022-08-31T02:07:44.318Z,102351.78
2022-08-31T02:10:10.759Z,102343.94
2022-08-31T02:12:37.152Z,102341.41
2022-08-31T02:15:04.049Z,102341.41
2022-08-31T02:17:30.452Z,102330.94
2022-08-31T02:19:56.885Z,102343.09
2022-08-31T02:22:23.227Z,102344.97
2022-08-31T02:24:49.674Z,102332.69
2022-08-31T02:27:16.015Z,102335.41
2022-08-31T02:29:42.387Z,102341.50
2022-08-31T02:32:08.816Z,102345.88
2022-08-31T02:34:48.153Z,102352.00
2022-08-31T02:37:15.306Z,102345.88
2022-08-31T02:39:44.020Z,102351.22
2022-08-31T02:42:10.851Z,102346.84
2022-08-31T02:44:37.203Z,102352.94
2022-08-31T02:47:03.691Z,102347.78
2022-08-31T02:49:32.380Z,102354.81
2022-08-31T02:51:58.891Z,102353.03
2022-08-31T02:54:25.615Z,102356.56
2022-08-31T02:56:51.954Z,102350.41
2022-08-31T02:59:20.624Z,102348.72
2022-08-31T03:01:47.894Z,102346.94
2022-08-31T03:04:14.399Z,102345.25
2022-08-31T03:06:41.105Z,102347.06
2022-08-31T03:09:07.480Z,102344.44
2022-08-31T03:11:33.849Z,102340.13
2022-08-31T03:14:00.198Z,102342.63
2022-08-31T03:16:26.717Z,102349.69
2022-08-31T03:18:53.248Z,102347.97
2022-08-31T03:21:19.703Z,102347.97
2022-08-31T03:23:46.200Z,102344.53
2022-08-31T03:26:12.690Z,102342.84
2022-08-31T03:28:39.482Z,102359.41
2022-08-31T03:31:10.438Z,102355.94
2022-08-31T03:33:37.478Z,102356.78
2022-08-31T03:36:05.500Z,102357.72
2022-08-31T03:38:31.915Z,102353.31
2022-08-31T03:40:58.635Z,102349.84
2022-08-31T03:43:25.162Z,102355.09
2022-08-31T03:45:51.557Z,102349.84
2022-08-31T03:48:18.413Z,102349.13
2022-08-31T03:50:44.817Z,102358.75
2022-08-31T03:53:11.801Z,102351.84
2022-08-31T03:55:41.085Z,102347.53
2022-08-31T03:58:08.331Z,102348.38
2022-08-31T04:00:35.227Z,102350.16
2022-08-31T04:03:02.379Z,102357.19
2022-08-31T04:05:30.728Z,102352.03
2022-08-31T04:07:57.579Z,102355.47
2022-08-31T04:10:24.309Z,102361.69
2022-08-31T04:12:50.894Z,102357.28
2022-08-31T04:15:17.894Z,102360.00
2022-08-31T04:17:45.841Z,102360.00
2022-08-31T04:20:13.136Z,102357.47
2022-08-31T04:22:39.628Z,102359.16
2022-08-31T04:25:06.484Z,102364.41
2022-08-31T04:27:32.864Z,102367.09
2022-08-31T04:29:59.216Z,102364.47
2022-08-31T04:32:25.598Z,102373.28
2022-08-31T04:34:56.206Z,102374.94
2022-08-31T04:37:23.402Z,102375.06
2022-08-31T04:39:51.194Z,102372.53
2022-08-31T04:42:18.503Z,102369.91
2022-08-31T04:44:44.856Z,102369.91
2022-08-31T04:47:11.438Z,102369.91
2022-08-31T04:49:38.052Z,102371.69
2022-08-31T04:52:04.463Z,102367.38
2022-08-31T04:54:30.817Z,102370.88
2022-08-31T04:56:59.059Z,102364.78
2022-08-31T04:59:27.438Z,102378.81
2022-08-31T05:01:55.295Z,102373.59
2022-08-31T05:04:24.483Z,102377.97
2022-08-31T05:06:51.396Z,102373.59
2022-08-31T05:09:22.368Z,102377.13
2022-08-31T05:11:50.571Z,102379.75
2022-08-31T05:14:17.060Z,102377.22
2022-08-31T05:16:43.773Z,102386.78
2022-08-31T05:19:10.435Z,102394.66
2022-08-31T05:21:39.523Z,102392.03
2022-08-31T05:24:18.565Z,102396.41
2022-08-31T05:26:55.999Z,102391.25
2022-08-31T05:29:26.907Z,102395.56
2022-08-31T05:31:53.466Z,102401.75
2022-08-31T05:34:21.704Z,102399.22
2022-08-31T05:36:52.268Z,102405.28
2022-08-31T05:39:19.561Z,102394.81
2022-08-31T05:41:46.905Z,102393.16
2022-08-31T05:44:14.676Z,102391.34
2022-08-31T05:46:42.102Z,102401.00
2022-08-31T05:49:11.003Z,102400.16
2022-08-31T05:51:38.968Z,102393.16
2022-08-31T05:54:07.396Z,102393.97
2022-08-31T05:56:35.608Z,102397.63
2022-08-31T05:59:02.073Z,102401.94
2022-08-31T06:01:34.815Z,102395.88
2022-08-31T06:04:02.394Z,102397.63
2022-08-31T06:06:29.500Z,102401.19
2022-08-31T06:08:56.684Z,102408.09
2022-08-31T06:11:26.419Z,102415.13
2022-08-31T06:13:54.507Z,102410.00
2022-08-31T06:16:21.616Z,102419.53
2022-08-31T06:18:51.428Z,102411.69
2022-08-31T06:21:21.466Z,102415.97
2022-08-31T06:23:49.956Z,102415.13
2022-08-31T06:26:18.515Z,102414.31
2022-08-31T06:28:47.550Z,102416.06
2022-08-31T06:31:23.732Z,102415.22
2022-08-31T06:33:51.816Z,102419.44
2022-08-31T06:36:20.287Z,102412.59
2022-08-31T06:38:47.822Z,102417.00
2022-08-31T06:41:16.820Z,102422.38
2022-08-31T06:43:44.249Z,102420.81
2022-08-31T06:46:12.426Z,102425.28
2022-08-31T06:48:39.168Z,102428.50
2022-08-31T06:51:07.644Z,102431.75
2022-08-31T06:53:42.668Z,102424.56
2022-08-31T06:56:20.648Z,102426.06
2022-08-31T06:58:48.827Z,102424.38
2022-08-31T07:01:32.613Z,102423.44
2022-08-31T07:04:05.763Z,102430.25
2022-08-31T07:06:36.407Z,102436.28
2022-08-31T07:09:06.357Z,102444.03
2022-08-31T07:11:39.934Z,102444.78
2022-08-31T07:14:12.301Z,102442.91
2022-08-31T07:16:39.628Z,102451.53
2022-08-31T07:19:06.730Z,102443.66
2022-08-31T07:21:39.996Z,102447.97
2022-08-31T07:24:07.414Z,102447.03
2022-08-31T07:26:38.408Z,102445.34
2022-08-31T07:29:07.431Z,102451.41
2022-08-31T07:31:46.141Z,102451.31
2022-08-31T07:34:15.321Z,102453.13
2022-08-31T07:37:01.415Z,102446.09
2022-08-31T07:39:46.793Z,102453.03
2022-08-31T07:42:17.163Z,102453.13
2022-08-31T07:44:53.149Z,102443.38
2022-08-31T07:47:20.597Z,102453.84
2022-08-31T07:49:52.454Z,102453.84
2022-08-31T07:52:25.605Z,102440.66
2022-08-31T07:54:54.353Z,102447.59
2022-08-31T07:57:25.683Z,102455.44
2022-08-31T08:00:08.230Z,102457.13
2022-08-31T08:02:38.603Z,102458.81
2022-08-31T08:05:21.034Z,102456.13
2022-08-31T08:07:54.905Z,102457.03
2022-08-31T08:10:24.012Z,102460.41
2022-08-31T08:12:57.105Z,102454.31
2022-08-31T08:15:27.019Z,102460.41
2022-08-31T08:17:53.358Z,102454.31
2022-08-31T08:20:34.266Z,102449.09
2022-08-31T08:23:13.944Z,102461.25
2022-08-31T08:25:43.180Z,102456.94
2022-08-31T08:28:29.046Z,102457.78
2022-08-31T08:31:01.320Z,102461.25
2022-08-31T08:33:29.803Z,102456.84
2022-08-31T08:35:58.345Z,102459.47
2022-08-31T08:38:26.141Z,102462.91
2022-08-31T08:40:53.195Z,102454.22
2022-08-31T08:43:26.546Z,102455.06
2022-08-31T08:45:56.042Z,102457.59
2022-08-31T08:48:28.051Z,102455.81
2022-08-31T08:50:54.645Z,102450.47
2022-08-31T08:53:26.675Z,102449.81
2022-08-31T08:55:53.063Z,102454.31
2022-08-31T08:58:19.444Z,102463.00
2022-08-31T09:00:52.368Z,102455.06
2022-08-31T09:03:30.712Z,102453.41
2022-08-31T09:06:02.766Z,102452.25
2022-08-31T09:08:43.438Z,102452.25
2022-08-31T09:11:32.262Z,102445.34
2022-08-31T09:14:19.111Z,102439.91
2022-08-31T09:16:49.799Z,102445.03
2022-08-31T09:19:18.258Z,102433.63
2022-08-31T09:21:55.249Z,102454.50
2022-08-31T09:24:26.675Z,102444.84
2022-08-31T09:27:19.303Z,102442.13
2022-08-31T09:30:00.568Z,102435.19
2022-08-31T09:32:34.832Z,102450.81
2022-08-31T09:35:21.898Z,102444.75
2022-08-31T09:37:58.351Z,102446.44
2022-08-31T09:40:48.435Z,102442.97
2022-08-31T09:43:25.270Z,102447.38
2022-08-31T09:46:09.546Z,102445.59
2022-08-31T09:48:56.342Z,102446.44
2022-08-31T09:51:26.063Z,102437.72
2022-08-31T09:54:11.362Z,102432.56
2022-08-31T09:56:54.933Z,102443.91
2022-08-31T09:59:34.008Z,102446.44
2022-08-31T10:02:02.403Z,102434.28
2022-08-31T10:04:36.672Z,102440.34
2022-08-31T10:07:31.735Z,102432.56
2022-08-31T10:10:02.996Z,102434.38
2022-08-31T10:12:49.047Z,102426.50
2022-08-31T10:15:21.319Z,102438.69
2022-08-31T10:18:03.097Z,102426.41
2022-08-31T10:20:38.122Z,102435.09
2022-08-31T10:23:14.257Z,102435.09
2022-08-31T10:25:46.657Z,102429.97
2022-08-31T10:28:20.173Z,102421.16
2022-08-31T10:30:52.278Z,102421.16
2022-08-31T10:33:49.767Z,102423.78
2022-08-31T10:36:16.215Z,102413.31
2022-08-31T10:38:48.247Z,102425.56
2022-08-31T10:41:17.585Z,102425.56
2022-08-31T10:44:00.079Z,102416.75
2022-08-31T10:46:26.574Z,102410.69
2022-08-31T10:48:54.992Z,102408.06
2022-08-31T10:51:50.845Z,102419.38
2022-08-31T10:54:36.923Z,102422.84
2022-08-31T10:57:35.847Z,102424.63
2022-08-31T11:00:08.726Z,102415.00
2022-08-31T11:03:04.718Z,102431.66
2022-08-31T11:05:40.616Z,102419.28
2022-08-31T11:08:39.454Z,102425.38
2022-08-31T11:11:10.973Z,102419.19
2022-08-31T11:14:05.276Z,102419.19
2022-08-31T11:16:40.734Z,102419.94
2022-08-31T11:19:42.606Z,102409.56
2022-08-31T11:22:37.447Z,102412.91
2022-08-31T11:25:28.659Z,102414.59
2022-08-31T11:28:33.845Z,102414.50
2022-08-31T11:31:14.643Z,102412.72
2022-08-31T11:34:14.243Z,102408.31
2022-08-31T11:36:54.898Z,102417.75
2022-08-31T11:39:26.648Z,102410.84
2022-08-31T11:41:54.445Z,102402.88
2022-08-31T11:44:29.928Z,102400.25
2022-08-31T11:47:01.082Z,102403.72
2022-08-31T11:49:38.673Z,102400.25
2022-08-31T11:52:13.447Z,102389.78
2022-08-31T11:54:41.844Z,102402.88
2022-08-31T11:57:15.368Z,102401.09
2022-08-31T11:59:44.297Z,102388.84
2022-08-31T12:02:19.594Z,102392.19
2022-08-31T12:04:51.849Z,102388.66
2022-08-31T12:07:30.804Z,102385.16
2022-08-31T12:10:18.623Z,102377.31
2022-08-31T12:13:09.425Z,102380.69
2022-08-31T12:16:04.892Z,102379.72
2022-08-31T12:19:09.047Z,102377.00
2022-08-31T12:21:57.076Z,102379.72
2022-08-31T12:24:49.053Z,102367.47
2022-08-31T12:27:25.080Z,102364.75
2022-08-31T12:29:51.680Z,102361.19
2022-08-31T12:32:26.775Z,102358.56
2022-08-31T12:35:00.283Z,102363.72
2022-08-31T12:37:36.573Z,102354.06
2022-08-31T12:40:05.910Z,102356.69
2022-08-31T12:42:36.429Z,102352.28
2022-08-31T12:45:04.738Z,102348.81
2022-08-31T12:48:03.167Z,102355.84
2022-08-31T12:50:48.395Z,102353.13
2022-08-31T12:53:37.730Z,102353.13
2022-08-31T12:56:22.876Z,102340.84
2022-08-31T12:59:14.328Z,102330.34
2022-08-31T13:01:46.180Z,102336.44
2022-08-31T13:04:15.694Z,102327.84
2022-08-31T13:06:44.978Z,102328.56
2022-08-31T13:09:26.556Z,102336.44
2022-08-31T13:11:56.000Z,102325.13
2022-08-31T13:14:26.737Z,102332.06
2022-08-31T13:16:54.897Z,102318.94
2022-08-31T13:19:27.360Z,102314.53
2022-08-31T13:21:58.147Z,102325.00
2022-08-31T13:24:30.875Z,102313.69
2022-08-31T13:27:28.204Z,102315.34
2022-08-31T13:30:12.695Z,102311.91
2022-08-31T13:32:44.804Z,102310.09
2022-08-31T13:35:15.124Z,102311.91
2022-08-31T13:37:52.377Z,102306.56
2022-08-31T13:40:24.615Z,102295.25
2022-08-31T13:42:54.404Z,102303.22
2022-08-31T13:45:34.326Z,102295.25
2022-08-31T13:48:15.290Z,102297.00
2022-08-31T13:50:53.670Z,102292.63
2022-08-31T13:53:42.613Z,102291.75
2022-08-31T13:56:57.423Z,102281.28
2022-08-31T13:59:33.164Z,102291.75
2022-08-31T14:02:07.396Z,102296.16
2022-08-31T14:04:48.688Z,102294.38
2022-08-31T14:07:22.084Z,102296.16
2022-08-31T14:09:52.033Z,102295.34
2022-08-31T14:12:47.200Z,102290.09
2022-08-31T14:15:38.591Z,102291.75
2022-08-31T14:18:27.321Z,102294.47
2022-08-31T14:21:20.019Z,102290.94
2022-08-31T14:23:53.446Z,102286.50
2022-08-31T14:26:22.734Z,102280.44
2022-08-31T14:28:53.110Z,102272.69
2022-08-31T14:31:26.459Z,102279.63
2022-08-31T14:34:32.184Z,102282.13
2022-08-31T14:37:08.558Z,102282.97
2022-08-31T14:39:39.487Z,102275.84
2022-08-31T14:42:14.424Z,102276.69
2022-08-31T14:44:43.153Z,102279.28
2022-08-31T14:47:09.943Z,102272.25
2022-08-31T14:49:36.966Z,102270.50
2022-08-31T14:52:06.603Z,102267.88
2022-08-31T14:54:35.398Z,102259.03
2022-08-31T14:57:04.959Z,102272.91
2022-08-31T14:59:34.702Z,102264.09
2022-08-31T15:02:01.256Z,102272.59
2022-08-31T15:04:28.737Z,102267.34
2022-08-31T15:07:09.729Z,102266.31
2022-08-31T15:09:40.851Z,102263.63
2022-08-31T15:12:08.333Z,102254.84
2022-08-31T15:14:37.976Z,102260.88
2022-08-31T15:17:06.779Z,102259.91
2022-08-31T15:19:39.185Z,102265.16
2022-08-31T15:22:10.518Z,102259.91
2022-08-31T15:24:40.223Z,102257.22
2022-08-31T15:27:12.640Z,102263.31
2022-08-31T15:29:40.841Z,102252.81
2022-08-31T15:32:11.626Z,102259.75
2022-08-31T15:34:38.272Z,102259.75
2022-08-31T15:37:07.019Z,102249.16
2022-08-31T15:39:43.274Z,102256.03
2022-08-31T15:42:11.778Z,102262.97
2022-08-31T15:44:40.596Z,102256.81
2022-08-31T15:47:28.353Z,102247.91
2022-08-31T15:49:56.121Z,102248.50
2022-08-31T15:52:27.544Z,102255.44
2022-08-31T15:54:54.444Z,102249.22
2022-08-31T15:57:23.310Z,102247.47
2022-08-31T15:59:50.198Z,102248.28
2022-08-31T16:02:20.965Z,102242.81
2022-08-31T16:04:50.442Z,102244.53
2022-08-31T16:07:17.528Z,102241.06
2022-08-31T16:09:46.584Z,102241.78
2022-08-31T16:12:14.066Z,102251.03
2022-08-31T16:14:44.165Z,102250.91
2022-08-31T16:17:11.832Z,102241.25
2022-08-31T16:19:39.360Z,102241.25
2022-08-31T16:22:07.883Z,102235.28
2022-08-31T16:24:38.423Z,102236.09
2022-08-31T16:27:07.896Z,102231.91
2022-08-31T16:29:35.522Z,102238.84
2022-08-31T16:32:02.416Z,102230.34
2022-08-31T16:34:31.036Z,102228.88
2022-08-31T16:36:57.658Z,102224.91
2022-08-31T16:39:27.895Z,102230.03
2022-08-31T16:41:54.602Z,102223.00
2022-08-31T16:44:20.948Z,102229.94
2022-08-31T16:46:47.625Z,102231.50
2022-08-31T16:49:32.641Z,102227.94
2022-08-31T16:52:03.381Z,102229.72
2022-08-31T16:54:30.526Z,102231.41
2022-08-31T16:56:57.553Z,102245.34
2022-08-31T16:59:26.355Z,102234.75
2022-08-31T17:01:53.673Z,102239.16
2022-08-31T17:04:48.211Z,102243.59
2022-08-31T17:07:10.716Z,102247.03
2022-08-31T17:09:39.655Z,102250.47
2022-08-31T17:12:11.985Z,102252.38
2022-08-31T17:14:46.895Z,102246.31
2022-08-31T17:17:25.412Z,102248.06
2022-08-31T17:19:53.307Z,102238.56
2022-08-31T17:22:27.058Z,102252.50
2022-08-31T17:24:58.124Z,102246.41
2022-08-31T17:27:25.532Z,102244.72
2022-08-31T17:29:55.595Z,102251.75
2022-08-31T17:32:25.000Z,102244.94
2022-08-31T17:34:54.307Z,102258.06
2022-08-31T17:37:36.345Z,102249.34
2022-08-31T17:40:07.723Z,102255.53
2022-08-31T17:42:34.840Z,102253.03
2022-08-31T17:45:04.833Z,102265.28
2022-08-31T17:47:32.953Z,102256.47
2022-08-31T17:49:59.413Z,102253.84
2022-08-31T17:52:26.080Z,102256.59
2022-08-31T17:54:52.589Z,102255.75
2022-08-31T17:57:24.770Z,102261.00
2022-08-31T17:59:51.505Z,102257.53
2022-08-31T18:02:22.145Z,102263.63
2022-08-31T18:04:48.885Z,102260.16
2022-08-31T18:07:16.118Z,102261.84
2022-08-31T18:09:45.276Z,102268.03
2022-08-31T18:12:11.656Z,102266.31
2022-08-31T18:14:38.776Z,102268.13
2022-08-31T18:17:08.483Z,102270.84
2022-08-31T18:19:35.768Z,102269.16
2022-08-31T18:22:02.452Z,102270.03
2022-08-31T18:24:34.064Z,102281.44
2022-08-31T18:27:03.891Z,102277.88
2022-08-31T18:29:33.946Z,102282.16
2022-08-31T18:32:05.133Z,102289.22
2022-08-31T18:34:34.506Z,102287.53
2022-08-31T18:37:02.160Z,102292.78
2022-08-31T18:39:51.608Z,102299.81
2022-08-31T18:42:39.028Z,102293.63
2022-08-31T18:45:15.934Z,102298.00
2022-08-31T18:47:43.249Z,102300.63
2022-08-31T18:50:10.374Z,102301.50
2022-08-31T18:52:40.210Z,102303.25
2022-08-31T18:55:07.858Z,102300.63
2022-08-31T18:57:34.454Z,102300.63
2022-08-31T19:00:14.515Z,102301.50
2022-08-31T19:02:41.268Z,102310.31
2022-08-31T19:05:11.549Z,102304.22
2022-08-31T19:07:39.896Z,102303.38
2022-08-31T19:10:12.095Z,102313.84
2022-08-31T19:12:39.364Z,102314.81
2022-08-31T19:15:06.526Z,102317.44
2022-08-31T19:17:33.804Z,102317.44
2022-08-31T19:20:03.686Z,102318.38
2022-08-31T19:22:30.190Z,102326.16
2022-08-31T19:24:56.691Z,102328.78
2022-08-31T19:27:23.960Z,102325.31
2022-08-31T19:29:55.592Z,102333.06
2022-08-31T19:32:22.511Z,102330.56
2022-08-31T19:34:49.546Z,102334.94
2022-08-31T19:37:16.275Z,102327.94
2022-08-31T19:39:45.857Z,102330.47
2022-08-31T19:42:14.992Z,102323.53
2022-08-31T19:45:23.989Z,102329.69
2022-08-31T19:47:30.019Z,102337.56
2022-08-31T19:49:56.423Z,102330.66
2022-08-31T19:52:24.292Z,102334.13
2022-08-31T19:54:51.751Z,102335.06
2022-08-31T19:57:21.348Z,102340.41
2022-08-31T19:59:49.721Z,102339.56
2022-08-31T20:02:17.971Z,102350.06
2022-08-31T20:04:45.279Z,102357.94
2022-08-31T20:07:13.474Z,102355.41
2022-08-31T20:09:39.827Z,102351.91
2022-08-31T20:12:06.463Z,102358.88
2022-08-31T20:14:32.878Z,102359.75
2022-08-31T20:16:59.520Z,102361.56
2022-08-31T20:19:27.328Z,102361.56
2022-08-31T20:22:05.466Z,102362.50
2022-08-31T20:24:31.842Z,102354.50
2022-08-31T20:27:08.935Z,102365.13
2022-08-31T20:29:37.579Z,102364.28
2022-08-31T20:32:04.235Z,102360.72
2022-08-31T20:34:30.769Z,102369.53
2022-08-31T20:37:01.085Z,102360.94
2022-08-31T20:39:29.931Z,102356.50
2022-08-31T20:41:58.751Z,102357.44
2022-08-31T20:44:31.667Z,102363.56
2022-08-31T20:47:19.916Z,102365.41
2022-08-31T20:49:58.170Z,102368.97
2022-08-31T20:52:27.286Z,102365.53
2022-08-31T20:55:02.061Z,102368.16
2022-08-31T20:57:30.151Z,102366.56
2022-08-31T20:59:56.975Z,102363.94
2022-08-31T21:02:23.435Z,102359.66
2022-08-31T21:04:50.055Z,102359.66
2022-08-31T21:07:18.901Z,102368.34
2022-08-31T21:09:46.419Z,102356.16
2022-08-31T21:12:17.976Z,102358.78
2022-08-31T21:14:45.889Z,102366.66
2022-08-31T21:17:14.073Z,102366.75
2022-08-31T21:19:41.750Z,102359.75
2022-08-31T21:22:12.874Z,102364.13
2022-08-31T21:24:41.833Z,102361.50
2022-08-31T21:27:11.975Z,102363.31
2022-08-31T21:29:38.448Z,102361.50
2022-08-31T21:32:07.445Z,102362.44
2022-08-31T21:34:33.847Z,102360.69
2022-08-31T21:37:00.198Z,102362.44
2022-08-31T21:39:26.984Z,102362.44
2022-08-31T21:41:55.432Z,102365.06
2022-08-31T21:44:22.081Z,102374.72
2022-08-31T21:46:50.822Z,102371.28
2022-08-31T21:49:18.603Z,102364.25
2022-08-31T21:51:53.474Z,102367.78
2022-08-31T21:54:23.490Z,102366.97
2022-08-31T21:56:52.675Z,102359.09
2022-08-31T21:59:21.057Z,102366.13
2022-08-31T22:01:48.234Z,102366.13
2022-08-31T22:04:16.174Z,102362.66
2022-08-31T22:06:43.520Z,102367.91
2022-08-31T22:09:14.812Z,102365.28
2022-08-31T22:11:45.950Z,102364.44
2022-08-31T22:14:16.242Z,102361.00
2022-08-31T22:16:46.422Z,102358.38
2022-08-31T22:19:15.967Z,102364.44
2022-08-31T22:21:45.166Z,102366.25
2022-08-31T22:24:27.130Z,102358.47
2022-08-31T22:26:55.184Z,102361.00
2022-08-31T22:29:24.319Z,102361.91
2022-08-31T22:31:52.943Z,102360.13
2022-08-31T22:34:21.030Z,102368.09
2022-08-31T22:36:52.010Z,102368.09
2022-08-31T22:39:22.888Z,102370.81
2022-08-31T22:41:49.346Z,102372.50
2022-08-31T22:44:18.527Z,102371.69
2022-08-31T22:46:46.397Z,102370.00
2022-08-31T22:49:14.060Z,102365.56
2022-08-31T22:51:41.803Z,102365.56
2022-08-31T22:54:09.894Z,102368.19
2022-08-31T22:56:38.629Z,102360.44
2022-08-31T22:59:09.279Z,102373.53
2022-08-31T23:01:47.519Z,102364.75
2022-08-31T23:04:18.783Z,102360.44
2022-08-31T23:06:46.381Z,102362.22
2022-08-31T23:09:12.866Z,102363.06
2022-08-31T23:11:39.964Z,102361.38
2022-08-31T23:14:08.947Z,102356.13
2022-08-31T23:16:42.659Z,102350.88
2022-08-31T23:19:16.455Z,102354.47
2022-08-31T23:21:46.809Z,102346.59
2022-08-31T23:24:37.067Z,102346.59
2022-08-31T23:27:05.674Z,102349.22
2022-08-31T23:29:34.949Z,102350.06
2022-08-31T23:32:01.556Z,102338.84
2022-08-31T23:34:28.170Z,102337.03
2022-08-31T23:36:55.501Z,102333.59
2022-08-31T23:39:25.191Z,102335.34
2022-08-31T23:41:53.090Z,102328.34
2022-08-31T23:44:20.471Z,102335.34
2022-08-31T23:46:47.165Z,102326.66
2022-08-31T23:49:17.039Z,102322.34
2022-08-31T23:51:43.756Z,102319.72
2022-08-31T23:54:10.491Z,102316.28
2022-08-31T23:56:40.730Z,102318.91
2022-08-31T23:59:11.519Z,102313.66
